createdAt,value
2018-08-23T00:01:10.904Z,12.53
2018-08-23T00:05:15.249Z,11.50
2018-08-23T00:09:19.520Z,13.53
2018-08-23T00:13:24.097Z,12.83
2018-08-23T00:17:30.798Z,14.13
2018-08-23T00:21:44.009Z,13.17
2018-08-23T00:25:48.200Z,13.77
2018-08-23T00:29:52.403Z,14.33
2018-08-23T00:33:56.640Z,13.70
2018-08-23T00:38:01.318Z,12.90
2018-08-23T00:42:07.957Z,12.57
2018-08-23T00:46:16.029Z,13.70
2018-08-23T00:51:02.355Z,13.20
2018-08-23T00:55:14.596Z,13.77
2018-08-23T00:59:18.858Z,16.20
2018-08-23T01:03:23.170Z,15.27
2018-08-23T01:07:30.819Z,13.87
2018-08-23T01:11:35.177Z,14.60
2018-08-23T01:15:39.569Z,14.30
2018-08-23T01:19:49.275Z,14.87
2018-08-23T01:23:53.492Z,14.40
2018-08-23T01:27:57.719Z,15.03
2018-08-23T01:32:12.351Z,14.70
2018-08-23T01:36:20.644Z,14.70
2018-08-23T01:40:24.872Z,13.80
2018-08-23T01:44:34.056Z,13.97
2018-08-23T01:48:38.487Z,14.60
2018-08-23T01:52:48.781Z,14.67
2018-08-23T01:56:52.992Z,15.47
2018-08-23T02:01:21.360Z,16.37
2018-08-23T02:05:25.689Z,15.20
2018-08-23T02:09:29.933Z,15.37
2018-08-23T02:13:34.214Z,14.03
2018-08-23T02:17:44.330Z,14.93
2018-08-23T02:21:48.624Z,15.13
2018-08-23T02:25:52.896Z,16.40
2018-08-23T02:29:57.108Z,15.53
2018-08-23T02:34:01.351Z,16.20
2018-08-23T02:38:05.692Z,15.20
2018-08-23T02:42:13.337Z,15.37
2018-08-23T02:46:17.666Z,15.83
2018-08-23T02:50:21.941Z,15.70
2018-08-23T02:54:26.297Z,14.40
2018-08-23T02:58:30.718Z,15.47
2018-08-23T03:02:34.964Z,14.80
2018-08-23T03:06:57.861Z,15.10
2018-08-23T03:11:02.113Z,16.40
2018-08-23T03:15:07.647Z,16.00
2018-08-23T03:19:11.889Z,15.77
2018-08-23T03:23:16.140Z,15.27
2018-08-23T03:27:20.435Z,15.90
2018-08-23T03:31:24.725Z,16.90
2018-08-23T03:35:28.924Z,15.10
2018-08-23T03:39:33.141Z,17.07
2018-08-23T03:43:37.328Z,15.50
2018-08-23T03:47:54.561Z,17.70
2018-08-23T03:51:59.185Z,16.13
2018-08-23T03:56:10.068Z,16.93
2018-08-23T04:00:14.277Z,16.50
2018-08-23T04:04:18.476Z,17.37
2018-08-23T04:08:22.756Z,16.30
2018-08-23T04:12:27.021Z,16.40
2018-08-23T04:16:32.178Z,17.37
2018-08-23T04:20:36.880Z,17.10
2018-08-23T04:24:45.974Z,16.07
2018-08-23T04:28:50.239Z,15.47
2018-08-23T04:32:54.974Z,15.00
2018-08-23T04:36:59.140Z,15.87
2018-08-23T04:41:06.162Z,17.03
2018-08-23T04:45:18.318Z,16.67
2018-08-23T04:49:22.868Z,16.13
2018-08-23T04:53:27.530Z,18.92
2018-08-23T04:57:31.798Z,20.10
2018-08-23T05:01:35.995Z,16.47
2018-08-23T05:05:40.453Z,15.27
2018-08-23T05:09:44.805Z,15.27
2018-08-23T05:13:50.211Z,15.90
2018-08-23T05:17:54.426Z,17.47
2018-08-23T05:21:58.815Z,15.57
2018-08-23T05:26:20.454Z,16.33
2018-08-23T05:30:25.180Z,16.00
2018-08-23T05:34:29.473Z,16.17
2018-08-23T05:38:33.803Z,14.80
2018-08-23T05:42:51.419Z,16.30
2018-08-23T05:46:57.539Z,15.70
2018-08-23T05:51:10.184Z,16.60
2018-08-23T05:55:14.492Z,17.67
2018-08-23T05:59:18.836Z,17.40
2018-08-23T06:03:23.075Z,17.07
2018-08-23T06:07:27.672Z,17.23
2018-08-23T06:11:32.165Z,16.37
2018-08-23T06:15:41.735Z,16.10
2018-08-23T06:19:45.980Z,16.10
2018-08-23T06:23:53.535Z,15.80
2018-08-23T06:27:57.850Z,15.48
2018-08-23T06:32:10.286Z,15.60
2018-08-23T06:36:14.519Z,14.40
2018-08-23T06:40:18.809Z,13.93
2018-08-23T06:44:23.581Z,13.10
2018-08-23T06:48:27.871Z,12.90
2018-08-23T06:52:36.654Z,13.80
2018-08-23T06:56:40.826Z,13.03
2018-08-23T07:00:45.220Z,12.20
2018-08-23T07:04:49.398Z,12.60
2018-08-23T07:08:54.066Z,12.80
2018-08-23T07:12:59.562Z,13.20
2018-08-23T07:17:31.637Z,11.90
2018-08-23T07:21:36.025Z,12.10
2018-08-23T07:25:45.191Z,10.87
2018-08-23T07:29:53.630Z,11.53
2018-08-23T07:33:58.037Z,9.93
2018-08-23T07:38:02.215Z,11.10
2018-08-23T07:42:06.637Z,11.43
2018-08-23T07:46:10.811Z,10.07
2018-08-23T07:50:15.357Z,9.80
2018-08-23T07:54:20.009Z,10.47
2018-08-23T07:58:24.336Z,10.80
2018-08-23T08:02:29.084Z,10.90
2018-08-23T08:06:33.492Z,10.00
2018-08-23T08:10:40.105Z,8.80
2018-08-23T08:14:44.568Z,9.60
2018-08-23T08:18:48.845Z,9.17
2018-08-23T08:22:53.187Z,9.50
2018-08-23T08:26:57.369Z,10.30
2018-08-23T08:31:02.515Z,9.10
2018-08-23T08:35:10.829Z,9.53
2018-08-23T08:39:15.101Z,8.53
2018-08-23T08:43:19.271Z,8.40
2018-08-23T08:47:23.728Z,9.47
2018-08-23T08:51:32.051Z,10.30
2018-08-23T08:55:36.427Z,8.43
2018-08-23T08:59:41.199Z,8.80
2018-08-23T09:03:45.868Z,10.17
2018-08-23T09:07:50.096Z,9.03
2018-08-23T09:11:54.433Z,10.27
2018-08-23T09:15:59.567Z,8.30
2018-08-23T09:20:07.077Z,9.60
2018-08-23T09:24:24.582Z,8.40
2018-08-23T09:28:28.841Z,9.53
2018-08-23T09:32:33.104Z,9.37
2018-08-23T09:36:37.283Z,8.97
2018-08-23T09:40:41.729Z,7.80
2018-08-23T09:44:58.938Z,9.07
2018-08-23T09:49:03.495Z,9.17
2018-08-23T09:53:41.674Z,9.20
2018-08-23T09:57:46.532Z,8.30
2018-08-23T10:01:56.044Z,8.33
2018-08-23T10:06:01.429Z,8.53
2018-08-23T10:10:11.163Z,9.13
2018-08-23T10:14:17.181Z,9.43
2018-08-23T10:18:27.718Z,9.27
2018-08-23T10:22:33.812Z,9.00
2018-08-23T10:26:38.611Z,7.90
2018-08-23T10:30:43.519Z,8.53
2018-08-23T10:34:47.845Z,8.13
2018-08-23T10:38:52.097Z,8.23
2018-08-23T10:42:56.297Z,8.53
2018-08-23T10:47:00.706Z,9.30
2018-08-23T10:51:04.942Z,8.50
2018-08-23T10:55:09.207Z,9.43
2018-08-23T10:59:13.521Z,9.40
2018-08-23T11:03:17.764Z,9.40
2018-08-23T11:07:26.138Z,8.80
2018-08-23T11:11:34.708Z,9.87
2018-08-23T11:15:38.883Z,9.53
2018-08-23T11:19:48.184Z,9.23
2018-08-23T11:23:52.386Z,8.20
2018-08-23T11:27:56.737Z,8.37
2018-08-23T11:32:00.932Z,8.57
2018-08-23T11:36:05.203Z,8.97
2018-08-23T11:40:09.402Z,8.67
2018-08-23T11:44:14.570Z,9.10
2018-08-23T11:48:37.219Z,8.20
2018-08-23T11:52:46.375Z,8.33
2018-08-23T11:56:51.612Z,8.73
2018-08-23T12:00:59.955Z,8.17
2018-08-23T12:05:04.185Z,9.10
2018-08-23T12:09:08.719Z,10.10
2018-08-23T12:13:13.195Z,8.77
2018-08-23T12:17:20.118Z,8.53
2018-08-23T12:21:25.978Z,8.87
2018-08-23T12:25:30.512Z,8.10
2018-08-23T12:29:34.811Z,8.10
2018-08-23T12:33:39.145Z,8.50
2018-08-23T12:37:49.052Z,8.50
2018-08-23T12:42:59.215Z,8.13
2018-08-23T12:47:04.034Z,8.43
2018-08-23T12:51:08.678Z,7.87
2018-08-23T12:55:13.181Z,7.60
2018-08-23T12:59:17.465Z,7.60
2018-08-23T13:03:21.996Z,9.00
2018-08-23T13:07:26.698Z,7.30
2018-08-23T13:11:31.072Z,7.30
2018-08-23T13:15:35.413Z,6.90
2018-08-23T13:19:40.227Z,7.30
2018-08-23T13:23:46.789Z,6.90
2018-08-23T13:27:51.452Z,6.80
2018-08-23T13:31:56.375Z,5.60
2018-08-23T13:36:00.620Z,7.40
2018-08-23T13:40:05.040Z,7.07
2018-08-23T13:44:09.264Z,7.40
2018-08-23T13:48:13.507Z,6.80
2018-08-23T13:52:17.837Z,6.20
2018-08-23T13:56:22.445Z,6.40
2018-08-23T14:00:31.869Z,6.50
2018-08-23T14:04:36.140Z,5.70
2018-08-23T14:08:40.404Z,6.13
2018-08-23T14:12:44.649Z,6.20
2018-08-23T14:16:48.865Z,6.90
2018-08-23T14:20:53.116Z,6.47
2018-08-23T14:24:57.455Z,6.50
2018-08-23T14:29:01.683Z,7.20
2018-08-23T14:33:06.014Z,7.90
2018-08-23T14:37:10.212Z,7.80
2018-08-23T14:41:14.434Z,6.90
2018-08-23T14:45:23.895Z,7.40
2018-08-23T14:49:33.103Z,7.30
2018-08-23T14:53:37.462Z,7.53
2018-08-23T14:57:47.954Z,8.70
2018-08-23T15:02:01.385Z,6.43
2018-08-23T15:06:14.795Z,7.27
2018-08-23T15:14:43.596Z,7.63
2018-08-23T15:18:53.581Z,8.50
2018-08-23T15:22:58.038Z,8.10
2018-08-23T15:27:02.501Z,7.93
2018-08-23T15:31:06.687Z,8.03
2018-08-23T15:35:10.885Z,8.73
2018-08-23T15:39:16.097Z,8.60
2018-08-23T15:43:20.460Z,9.07
2018-08-23T15:47:24.942Z,8.37
2018-08-23T15:51:29.371Z,8.33
2018-08-23T15:55:34.495Z,9.13
2018-08-23T15:59:38.709Z,8.23
2018-08-23T16:03:42.949Z,8.50
2018-08-23T16:07:47.224Z,8.93
2018-08-23T16:11:52.515Z,8.33
2018-08-23T16:16:02.215Z,8.93
2018-08-23T16:20:11.913Z,9.13
2018-08-23T16:24:16.273Z,9.97
2018-08-23T16:28:20.489Z,9.73
2018-08-23T16:32:29.768Z,10.50
2018-08-23T16:36:33.928Z,8.40
2018-08-23T16:40:38.343Z,8.93
2018-08-23T16:44:42.625Z,9.20
2018-08-23T16:48:46.946Z,9.50
2018-08-23T16:52:51.185Z,9.97
2018-08-23T16:56:55.445Z,10.23
2018-08-23T17:00:59.645Z,9.43
2018-08-23T17:05:03.953Z,10.45
2018-08-23T17:09:09.104Z,8.60
2018-08-23T17:13:17.500Z,10.07
2018-08-23T17:17:29.053Z,10.30
2018-08-23T17:21:33.294Z,11.20
2018-08-23T17:25:37.529Z,10.50
2018-08-23T17:29:41.905Z,9.80
2018-08-23T17:33:46.117Z,10.80
2018-08-23T17:37:50.393Z,10.77
2018-08-23T17:41:54.605Z,11.07
2018-08-23T17:45:58.797Z,10.17
2018-08-23T17:50:03.113Z,11.03
2018-08-23T17:54:07.327Z,11.03
2018-08-23T17:58:11.716Z,10.27
2018-08-23T18:02:15.917Z,11.17
2018-08-23T18:06:20.285Z,11.20
2018-08-23T18:10:25.435Z,10.80
2018-08-23T18:14:29.665Z,11.03
2018-08-23T18:18:33.880Z,11.73
2018-08-23T18:22:38.335Z,10.93
2018-08-23T18:26:42.616Z,11.03
2018-08-23T18:30:47.028Z,11.60
2018-08-23T18:34:51.390Z,11.33
2018-08-23T18:38:59.384Z,11.90
2018-08-23T18:43:04.456Z,12.27
2018-08-23T18:47:09.225Z,12.53
2018-08-23T18:51:13.659Z,13.87
2018-08-23T18:55:18.179Z,12.50
2018-08-23T18:59:22.832Z,13.57
2018-08-23T19:03:27.516Z,13.00
2018-08-23T19:07:37.012Z,11.50
2018-08-23T19:11:41.969Z,13.57
2018-08-23T19:15:51.371Z,12.73
2018-08-23T19:19:59.695Z,13.17
2018-08-23T19:24:04.947Z,12.90
2018-08-23T19:28:10.630Z,13.40
2018-08-23T19:32:15.455Z,12.47
2018-08-23T19:36:19.906Z,13.93
2018-08-23T19:40:29.919Z,13.13
2018-08-23T19:44:36.724Z,13.07
2018-08-23T19:48:41.715Z,12.00
2018-08-23T19:52:47.368Z,12.87
2018-08-23T19:56:52.276Z,12.97
2018-08-23T20:00:57.009Z,13.20
2018-08-23T20:05:01.818Z,13.63
2018-08-23T20:09:08.910Z,12.47
2018-08-23T20:13:13.668Z,12.20
2018-08-23T20:17:18.385Z,13.50
2018-08-23T20:21:23.181Z,12.13
2018-08-23T20:25:28.264Z,12.80
2018-08-23T20:29:33.329Z,12.47
2018-08-23T20:33:38.208Z,13.53
2018-08-23T20:37:42.893Z,12.50
2018-08-23T20:41:47.986Z,12.93
2018-08-23T20:45:52.820Z,13.20
2018-08-23T20:49:57.659Z,15.07
2018-08-23T20:54:02.697Z,15.87
2018-08-23T20:58:07.474Z,13.40
2018-08-23T21:02:11.921Z,14.60
2018-08-23T21:06:16.896Z,15.47
2018-08-23T21:10:21.605Z,15.70
2018-08-23T21:14:25.819Z,15.37
2018-08-23T21:18:29.992Z,15.27
2018-08-23T21:22:34.447Z,16.27
2018-08-23T21:26:38.749Z,15.53
2018-08-23T21:30:43.003Z,15.23
2018-08-23T21:34:47.296Z,15.60
2018-08-23T21:38:51.736Z,15.30
2018-08-23T21:42:55.979Z,14.60
2018-08-23T21:47:00.149Z,15.70
2018-08-23T21:51:04.727Z,13.43
2018-08-23T21:55:08.944Z,17.27
2018-08-23T21:59:13.313Z,15.43
2018-08-23T22:03:17.499Z,17.00
2018-08-23T22:07:22.029Z,16.40
2018-08-23T22:11:26.249Z,15.60
